RJAA/NRT METAR and TAF weather

Enter ICAO airport designator
Station Type Date Time Source
RJAA METAR 2020/01/24 03:00 UTC NOAA

RJAA 240300Z 03004KT 310V080 9999 FEW015 BKN060 13/09 Q1021 NOSIG


Station Type Date Time Source
RJAA Decoded METAR 2020/01/24 03:00 UTC NOAA

New Tokyo Inter-National Airport, Japan (RJAA) 35-46N 140-23E 44M
Jan 23, 2020 - 10:00 PM EST / 2020.01.24 0300 UTC
Wind: from the NNE (030 degrees) at 5 MPH (4 KT) (direction variable):0
Visibility: greater than 7 mile(s):0
Sky conditions: mostly cloudy
Temperature: 55 F (13 C)
Dew Point: 48 F (9 C)
Relative Humidity: 76%
Pressure (altimeter): 30.15 in. Hg (1021 hPa)
ob: RJAA 240300Z 03004KT 310V080 9999 FEW015 BKN060 13/09 Q1021 NOSIG
cycle: 3

Station Type Date Time Source
RJAA TAF 2020/01/23 21:10 UTC NOAA

TAF
AMD RJAA 232105Z 2321/2500 35005KT 9999 FEW020

Example: see airport list